sensor_id;sensor_type;location;lat;lon;timestamp;temperature;humidity
22089;DHT22;11211;52.728;9.230;2022-08-19T04:01:28;21.60;99.90
22089;DHT22;11211;52.728;9.230;2022-08-19T04:03:56;21.60;99.90
22089;DHT22;11211;52.728;9.230;2022-08-19T04:06:25;21.60;99.90
22089;DHT22;11211;52.728;9.230;2022-08-19T04:08:54;21.60;99.90
22089;DHT22;11211;52.728;9.230;2022-08-19T04:11:26;21.60;99.90
22089;DHT22;11211;52.728;9.230;2022-08-19T04:13:53;21.60;99.90
22089;DHT22;11211;52.728;9.230;2022-08-19T04:16:22;21.60;99.90
22089;DHT22;11211;52.728;9.230;2022-08-19T04:18:51;21.60;99.90
22089;DHT22;11211;52.728;9.230;2022-08-19T04:21:20;21.60;99.90
22089;DHT22;11211;52.728;9.230;2022-08-19T04:23:48;21.60;99.90
22089;DHT22;11211;52.728;9.230;2022-08-19T04:26:16;21.60;99.90
22089;DHT22;11211;52.728;9.230;2022-08-19T04:28:44;21.50;99.90
22089;DHT22;11211;52.728;9.230;2022-08-19T04:31:14;21.60;99.90
22089;DHT22;11211;52.728;9.230;2022-08-19T04:33:41;21.60;99.90
22089;DHT22;11211;52.728;9.230;2022-08-19T04:36:15;21.60;99.90
22089;DHT22;11211;52.728;9.230;2022-08-19T04:38:42;21.60;99.90
22089;DHT22;11211;52.728;9.230;2022-08-19T04:41:09;21.60;99.90
22089;DHT22;11211;52.728;9.230;2022-08-19T04:43:53;21.50;99.90
22089;DHT22;11211;52.728;9.230;2022-08-19T04:46:20;21.60;99.90
22089;DHT22;11211;52.728;9.230;2022-08-19T04:48:47;21.60;99.90
22089;DHT22;11211;52.728;9.230;2022-08-19T04:51:15;21.60;99.90
22089;DHT22;11211;52.728;9.230;2022-08-19T04:53:42;21.60;99.80
22089;DHT22;11211;52.728;9.230;2022-08-19T04:56:11;21.60;99.90
22089;DHT22;11211;52.728;9.230;2022-08-19T04:58:39;21.60;99.90
22089;DHT22;11211;52.728;9.230;2022-08-19T05:01:08;21.60;99.80
22089;DHT22;11211;52.728;9.230;2022-08-19T05:03:35;21.60;99.80
22089;DHT22;11211;52.728;9.230;2022-08-19T05:06:04;21.60;99.80
22089;DHT22;11211;52.728;9.230;2022-08-19T05:08:35;21.60;99.80
22089;DHT22;11211;52.728;9.230;2022-08-19T05:11:08;21.60;99.80
22089;DHT22;11211;52.728;9.230;2022-08-19T05:13:35;21.50;99.70
22089;DHT22;11211;52.728;9.230;2022-08-19T05:16:02;21.60;99.70
22089;DHT22;11211;52.728;9.230;2022-08-19T05:18:29;21.60;99.70
22089;DHT22;11211;52.728;9.230;2022-08-19T05:21:16;21.60;99.70
22089;DHT22;11211;52.728;9.230;2022-08-19T05:24:02;21.60;99.70
22089;DHT22;11211;52.728;9.230;2022-08-19T05:26:31;21.60;99.70
22089;DHT22;11211;52.728;9.230;2022-08-19T05:28:58;21.50;99.70
22089;DHT22;11211;52.728;9.230;2022-08-19T05:31:25;21.50;99.60
22089;DHT22;11211;52.728;9.230;2022-08-19T05:33:52;21.60;99.70
22089;DHT22;11211;52.728;9.230;2022-08-19T05:36:18;21.50;99.60
22089;DHT22;11211;52.728;9.230;2022-08-19T05:38:46;21.50;99.70
22089;DHT22;11211;52.728;9.230;2022-08-19T05:41:16;21.60;99.60
22089;DHT22;11211;52.728;9.230;2022-08-19T05:43:43;21.50;99.70
22089;DHT22;11211;52.728;9.230;2022-08-19T05:46:16;21.50;99.60
22089;DHT22;11211;52.728;9.230;2022-08-19T05:48:44;21.50;99.60
22089;DHT22;11211;52.728;9.230;2022-08-19T05:51:11;21.50;99.60
22089;DHT22;11211;52.728;9.230;2022-08-19T05:53:37;21.50;99.60
22089;DHT22;11211;52.728;9.230;2022-08-19T05:56:05;21.50;99.60
22089;DHT22;11211;52.728;9.230;2022-08-19T05:58:33;21.50;99.60
22089;DHT22;11211;52.728;9.230;2022-08-19T06:01:00;21.50;99.60
22089;DHT22;11211;52.728;9.230;2022-08-19T06:03:29;21.50;99.60
22089;DHT22;11211;52.728;9.230;2022-08-19T06:05:56;21.50;99.60
22089;DHT22;11211;52.728;9.230;2022-08-19T06:08:25;21.50;99.60
22089;DHT22;11211;52.728;9.230;2022-08-19T06:10:52;21.50;99.90
22089;DHT22;11211;52.728;9.230;2022-08-19T06:13:19;21.50;99.60
22089;DHT22;11211;52.728;9.230;2022-08-19T06:15:47;21.50;99.60
22089;DHT22;11211;52.728;9.230;2022-08-19T06:18:15;21.50;99.60
22089;DHT22;11211;52.728;9.230;2022-08-19T06:20:42;21.50;99.60
22089;DHT22;11211;52.728;9.230;2022-08-19T06:23:09;21.50;99.60
22089;DHT22;11211;52.728;9.230;2022-08-19T06:25:36;21.50;99.60
22089;DHT22;11211;52.728;9.230;2022-08-19T06:28:03;21.50;99.60
22089;DHT22;11211;52.728;9.230;2022-08-19T06:30:29;21.50;99.60
22089;DHT22;11211;52.728;9.230;2022-08-19T06:32:58;21.50;99.70
22089;DHT22;11211;52.728;9.230;2022-08-19T06:35:24;21.50;99.70
22089;DHT22;11211;52.728;9.230;2022-08-19T06:37:52;21.50;99.70
22089;DHT22;11211;52.728;9.230;2022-08-19T06:40:19;21.50;99.70
22089;DHT22;11211;52.728;9.230;2022-08-19T06:42:46;21.50;99.70
22089;DHT22;11211;52.728;9.230;2022-08-19T06:45:13;21.50;99.60
22089;DHT22;11211;52.728;9.230;2022-08-19T06:47:42;21.50;99.70
22089;DHT22;11211;52.728;9.230;2022-08-19T06:50:12;21.50;99.60
22089;DHT22;11211;52.728;9.230;2022-08-19T06:56:04;21.50;99.60
22089;DHT22;11211;52.728;9.230;2022-08-19T06:58:31;21.50;99.50
22089;DHT22;11211;52.728;9.230;2022-08-19T07:01:00;21.50;99.40
22089;DHT22;11211;52.728;9.230;2022-08-19T07:03:29;21.50;99.40
22089;DHT22;11211;52.728;9.230;2022-08-19T07:06:02;21.50;99.40
22089;DHT22;11211;52.728;9.230;2022-08-19T07:08:29;21.50;99.40
22089;DHT22;11211;52.728;9.230;2022-08-19T07:10:57;21.50;99.40
22089;DHT22;11211;52.728;9.230;2022-08-19T07:13:24;21.50;99.40
22089;DHT22;11211;52.728;9.230;2022-08-19T07:15:51;21.50;99.30
22089;DHT22;11211;52.728;9.230;2022-08-19T07:18:18;21.50;99.30
22089;DHT22;11211;52.728;9.230;2022-08-19T07:20:45;21.50;99.30
22089;DHT22;11211;52.728;9.230;2022-08-19T07:23:14;21.50;99.20
22089;DHT22;11211;52.728;9.230;2022-08-19T07:26:04;21.50;99.20
22089;DHT22;11211;52.728;9.230;2022-08-19T07:28:31;21.50;99.20
22089;DHT22;11211;52.728;9.230;2022-08-19T07:30:58;21.50;99.20
22089;DHT22;11211;52.728;9.230;2022-08-19T07:33:27;21.50;99.10
22089;DHT22;11211;52.728;9.230;2022-08-19T07:35:55;21.50;99.20
22089;DHT22;11211;52.728;9.230;2022-08-19T07:38:23;21.50;99.10
22089;DHT22;11211;52.728;9.230;2022-08-19T07:40:50;21.50;99.20
22089;DHT22;11211;52.728;9.230;2022-08-19T07:43:17;21.50;99.10
22089;DHT22;11211;52.728;9.230;2022-08-19T07:45:46;21.50;99.10
22089;DHT22;11211;52.728;9.230;2022-08-19T07:48:13;21.50;99.10
22089;DHT22;11211;52.728;9.230;2022-08-19T07:50:40;21.50;99.20
22089;DHT22;11211;52.728;9.230;2022-08-19T07:53:07;21.50;99.10
22089;DHT22;11211;52.728;9.230;2022-08-19T07:55:35;21.50;99.10
22089;DHT22;11211;52.728;9.230;2022-08-19T07:58:02;21.50;99.10
22089;DHT22;11211;52.728;9.230;2022-08-19T08:00:30;21.50;99.10
22089;DHT22;11211;52.728;9.230;2022-08-19T08:02:57;21.50;99.10
22089;DHT22;11211;52.728;9.230;2022-08-19T08:05:24;21.50;99.10
22089;DHT22;11211;52.728;9.230;2022-08-19T08:08:08;21.50;99.10
22089;DHT22;11211;52.728;9.230;2022-08-19T08:10:53;21.50;99.00
22089;DHT22;11211;52.728;9.230;2022-08-19T08:13:27;21.50;99.00
22089;DHT22;11211;52.728;9.230;2022-08-19T08:15:54;21.50;98.90
22089;DHT22;11211;52.728;9.230;2022-08-19T08:18:21;21.50;98.90
22089;DHT22;11211;52.728;9.230;2022-08-19T08:20:49;21.50;98.90
22089;DHT22;11211;52.728;9.230;2022-08-19T08:23:15;21.50;98.90
22089;DHT22;11211;52.728;9.230;2022-08-19T08:25:51;21.50;98.90
22089;DHT22;11211;52.728;9.230;2022-08-19T08:28:19;21.50;98.90
22089;DHT22;11211;52.728;9.230;2022-08-19T08:30:47;21.50;98.80
22089;DHT22;11211;52.728;9.230;2022-08-19T08:33:18;21.50;98.70
22089;DHT22;11211;52.728;9.230;2022-08-19T08:35:45;21.50;98.70
22089;DHT22;11211;52.728;9.230;2022-08-19T08:38:12;21.50;98.70
22089;DHT22;11211;52.728;9.230;2022-08-19T08:40:43;21.50;98.60
22089;DHT22;11211;52.728;9.230;2022-08-19T08:43:21;21.50;98.60
22089;DHT22;11211;52.728;9.230;2022-08-19T08:45:52;21.50;98.70
22089;DHT22;11211;52.728;9.230;2022-08-19T08:48:27;21.50;98.60
22089;DHT22;11211;52.728;9.230;2022-08-19T08:50:58;21.50;98.60
22089;DHT22;11211;52.728;9.230;2022-08-19T08:53:27;21.50;98.60
22089;DHT22;11211;52.728;9.230;2022-08-19T08:55:54;21.50;98.50
22089;DHT22;11211;52.728;9.230;2022-08-19T08:58:29;21.50;98.50
22089;DHT22;11211;52.728;9.230;2022-08-19T09:00:57;21.50;98.50
22089;DHT22;11211;52.728;9.230;2022-08-19T09:03:26;21.50;98.50
22089;DHT22;11211;52.728;9.230;2022-08-19T09:05:59;21.50;98.40
22089;DHT22;11211;52.728;9.230;2022-08-19T09:08:36;21.50;98.40
22089;DHT22;11211;52.728;9.230;2022-08-19T09:11:08;21.50;98.40
22089;DHT22;11211;52.728;9.230;2022-08-19T09:13:44;21.50;98.40
22089;DHT22;11211;52.728;9.230;2022-08-19T09:16:18;21.50;98.40
22089;DHT22;11211;52.728;9.230;2022-08-19T09:18:48;21.50;98.40
22089;DHT22;11211;52.728;9.230;2022-08-19T09:21:19;21.50;98.30
22089;DHT22;11211;52.728;9.230;2022-08-19T09:23:48;21.50;98.40
22089;DHT22;11211;52.728;9.230;2022-08-19T09:26:17;21.50;98.30
22089;DHT22;11211;52.728;9.230;2022-08-19T09:28:50;21.50;98.30
22089;DHT22;11211;52.728;9.230;2022-08-19T09:31:19;21.50;98.40
22089;DHT22;11211;52.728;9.230;2022-08-19T09:33:47;21.50;98.30
22089;DHT22;11211;52.728;9.230;2022-08-19T09:36:17;21.50;98.40
22089;DHT22;11211;52.728;9.230;2022-08-19T09:38:44;21.50;98.40
22089;DHT22;11211;52.728;9.230;2022-08-19T09:41:14;21.50;98.30
22089;DHT22;11211;52.728;9.230;2022-08-19T09:43:44;21.50;98.40
22089;DHT22;11211;52.728;9.230;2022-08-19T09:46:13;21.50;98.40
22089;DHT22;11211;52.728;9.230;2022-08-19T09:48:42;21.50;98.40
22089;DHT22;11211;52.728;9.230;2022-08-19T09:51:14;21.50;98.40
22089;DHT22;11211;52.728;9.230;2022-08-19T09:53:43;21.50;98.40
22089;DHT22;11211;52.728;9.230;2022-08-19T09:56:11;21.50;98.40
22089;DHT22;11211;52.728;9.230;2022-08-19T09:58:38;21.50;98.50
22089;DHT22;11211;52.728;9.230;2022-08-19T10:01:06;21.50;98.50
22089;DHT22;11211;52.728;9.230;2022-08-19T10:03:36;21.50;98.60
22089;DHT22;11211;52.728;9.230;2022-08-19T10:06:04;21.50;98.60
22089;DHT22;11211;52.728;9.230;2022-08-19T10:08:33;21.50;98.70
22089;DHT22;11211;52.728;9.230;2022-08-19T10:11:00;21.50;98.60
22089;DHT22;11211;52.728;9.230;2022-08-19T10:13:30;21.50;98.60
22089;DHT22;11211;52.728;9.230;2022-08-19T10:16:03;21.50;98.70
22089;DHT22;11211;52.728;9.230;2022-08-19T10:18:30;21.50;98.60
22089;DHT22;11211;52.728;9.230;2022-08-19T10:21:06;21.50;98.60
22089;DHT22;11211;52.728;9.230;2022-08-19T10:23:36;21.50;98.60
22089;DHT22;11211;52.728;9.230;2022-08-19T10:26:04;21.60;98.60
22089;DHT22;11211;52.728;9.230;2022-08-19T10:28:32;21.50;98.70
22089;DHT22;11211;52.728;9.230;2022-08-19T10:31:04;21.60;98.70
22089;DHT22;11211;52.728;9.230;2022-08-19T10:33:32;21.60;98.70
22089;DHT22;11211;52.728;9.230;2022-08-19T10:36:00;21.60;98.70
22089;DHT22;11211;52.728;9.230;2022-08-19T10:38:28;21.50;98.70
22089;DHT22;11211;52.728;9.230;2022-08-19T10:40:57;21.50;98.60
22089;DHT22;11211;52.728;9.230;2022-08-19T10:43:24;21.60;98.70
22089;DHT22;11211;52.728;9.230;2022-08-19T10:45:54;21.50;98.60
22089;DHT22;11211;52.728;9.230;2022-08-19T10:48:24;21.60;98.70
22089;DHT22;11211;52.728;9.230;2022-08-19T10:50:51;21.50;98.60
22089;DHT22;11211;52.728;9.230;2022-08-19T10:53:37;21.60;98.70
22089;DHT22;11211;52.728;9.230;2022-08-19T10:56:04;21.60;98.70
22089;DHT22;11211;52.728;9.230;2022-08-19T10:58:49;21.60;98.80
22089;DHT22;11211;52.728;9.230;2022-08-19T11:01:15;21.60;98.60
22089;DHT22;11211;52.728;9.230;2022-08-19T11:03:42;21.50;98.60
22089;DHT22;11211;52.728;9.230;2022-08-19T11:06:10;21.60;98.60
22089;DHT22;11211;52.728;9.230;2022-08-19T11:08:39;21.50;98.60
22089;DHT22;11211;52.728;9.230;2022-08-19T11:11:07;21.50;98.60
22089;DHT22;11211;52.728;9.230;2022-08-19T11:13:37;21.60;98.60
22089;DHT22;11211;52.728;9.230;2022-08-19T11:16:05;21.50;98.60
22089;DHT22;11211;52.728;9.230;2022-08-19T11:18:35;21.50;98.60
22089;DHT22;11211;52.728;9.230;2022-08-19T11:21:07;21.50;98.60
22089;DHT22;11211;52.728;9.230;2022-08-19T11:23:34;21.60;98.60
22089;DHT22;11211;52.728;9.230;2022-08-19T11:26:03;21.60;98.60
22089;DHT22;11211;52.728;9.230;2022-08-19T11:28:30;21.50;98.50
22089;DHT22;11211;52.728;9.230;2022-08-19T11:30:56;21.50;98.50
22089;DHT22;11211;52.728;9.230;2022-08-19T11:33:23;21.60;98.50
22089;DHT22;11211;52.728;9.230;2022-08-19T11:35:51;21.60;98.50
22089;DHT22;11211;52.728;9.230;2022-08-19T11:38:18;21.50;98.50
22089;DHT22;11211;52.728;9.230;2022-08-19T11:40:45;21.60;98.60
22089;DHT22;11211;52.728;9.230;2022-08-19T11:43:21;21.60;98.50
22089;DHT22;11211;52.728;9.230;2022-08-19T11:45:48;21.50;98.50
22089;DHT22;11211;52.728;9.230;2022-08-19T11:48:15;21.60;98.50
22089;DHT22;11211;52.728;9.230;2022-08-19T11:50:42;21.50;98.50
22089;DHT22;11211;52.728;9.230;2022-08-19T11:53:09;21.60;98.40
22089;DHT22;11211;52.728;9.230;2022-08-19T11:55:37;21.50;98.40
22089;DHT22;11211;52.728;9.230;2022-08-19T11:58:04;21.50;98.50
22089;DHT22;11211;52.728;9.230;2022-08-19T12:03:02;21.60;98.50
22089;DHT22;11211;52.728;9.230;2022-08-19T12:05:29;21.60;98.50
22089;DHT22;11211;52.728;9.230;2022-08-19T12:07:55;21.60;98.50
22089;DHT22;11211;52.728;9.230;2022-08-19T12:10:22;21.60;98.40
22089;DHT22;11211;52.728;9.230;2022-08-19T12:12:49;21.60;98.50
22089;DHT22;11211;52.728;9.230;2022-08-19T12:15:16;21.50;98.40
22089;DHT22;11211;52.728;9.230;2022-08-19T12:17:44;21.60;98.40
22089;DHT22;11211;52.728;9.230;2022-08-19T12:20:12;21.50;98.40
22089;DHT22;11211;52.728;9.230;2022-08-19T12:22:46;21.60;98.40
22089;DHT22;11211;52.728;9.230;2022-08-19T12:25:13;21.60;98.40
22089;DHT22;11211;52.728;9.230;2022-08-19T12:27:40;21.50;98.70
22089;DHT22;11211;52.728;9.230;2022-08-19T12:30:10;21.50;98.40
22089;DHT22;11211;52.728;9.230;2022-08-19T12:32:38;21.50;98.40
22089;DHT22;11211;52.728;9.230;2022-08-19T12:35:09;21.60;98.40
22089;DHT22;11211;52.728;9.230;2022-08-19T12:37:37;21.50;98.40
22089;DHT22;11211;52.728;9.230;2022-08-19T12:40:05;21.50;98.40
22089;DHT22;11211;52.728;9.230;2022-08-19T12:42:32;21.60;98.70
22089;DHT22;11211;52.728;9.230;2022-08-19T12:45:00;21.60;98.40
22089;DHT22;11211;52.728;9.230;2022-08-19T12:47:27;21.50;98.30
22089;DHT22;11211;52.728;9.230;2022-08-19T12:49:54;21.50;98.20
22089;DHT22;11211;52.728;9.230;2022-08-19T12:52:26;21.60;98.20
22089;DHT22;11211;52.728;9.230;2022-08-19T12:54:55;21.60;98.20
22089;DHT22;11211;52.728;9.230;2022-08-19T12:57:24;21.50;98.10
22089;DHT22;11211;52.728;9.230;2022-08-19T12:59:52;21.50;98.00
22089;DHT22;11211;52.728;9.230;2022-08-19T13:02:21;21.50;98.00
22089;DHT22;11211;52.728;9.230;2022-08-19T13:04:53;21.50;98.00
22089;DHT22;11211;52.728;9.230;2022-08-19T13:07:22;21.50;98.00
22089;DHT22;11211;52.728;9.230;2022-08-19T13:09:54;21.50;97.90
22089;DHT22;11211;52.728;9.230;2022-08-19T13:12:38;21.50;97.90
22089;DHT22;11211;52.728;9.230;2022-08-19T13:15:33;21.50;97.80
22089;DHT22;11211;52.728;9.230;2022-08-19T13:18:06;21.50;97.70
22089;DHT22;11211;52.728;9.230;2022-08-19T13:20:35;21.50;97.70
22089;DHT22;11211;52.728;9.230;2022-08-19T13:23:06;21.50;97.70
22089;DHT22;11211;52.728;9.230;2022-08-19T13:25:40;21.50;97.60
22089;DHT22;11211;52.728;9.230;2022-08-19T13:28:12;21.50;97.60
22089;DHT22;11211;52.728;9.230;2022-08-19T13:30:49;21.50;97.50
22089;DHT22;11211;52.728;9.230;2022-08-19T13:33:39;21.50;97.50
22089;DHT22;11211;52.728;9.230;2022-08-19T13:36:12;21.50;97.40
22089;DHT22;11211;52.728;9.230;2022-08-19T13:42:06;21.50;97.10
22089;DHT22;11211;52.728;9.230;2022-08-19T13:44:39;21.50;97.00
22089;DHT22;11211;52.728;9.230;2022-08-19T13:47:06;21.50;97.00
22089;DHT22;11211;52.728;9.230;2022-08-19T13:49:34;21.50;97.00
22089;DHT22;11211;52.728;9.230;2022-08-19T13:52:03;21.50;97.00
22089;DHT22;11211;52.728;9.230;2022-08-19T13:54:30;21.50;97.00
22089;DHT22;11211;52.728;9.230;2022-08-19T13:56:56;21.50;97.00
22089;DHT22;11211;52.728;9.230;2022-08-19T13:59:26;21.50;97.00
22089;DHT22;11211;52.728;9.230;2022-08-19T14:02:00;21.50;97.00
22089;DHT22;11211;52.728;9.230;2022-08-19T14:04:39;21.50;97.00
22089;DHT22;11211;52.728;9.230;2022-08-19T14:07:07;21.50;96.90
22089;DHT22;11211;52.728;9.230;2022-08-19T14:09:34;21.50;96.90
22089;DHT22;11211;52.728;9.230;2022-08-19T14:12:02;21.50;96.90
22089;DHT22;11211;52.728;9.230;2022-08-19T14:14:31;21.50;96.90
22089;DHT22;11211;52.728;9.230;2022-08-19T14:16:58;21.50;96.80
22089;DHT22;11211;52.728;9.230;2022-08-19T14:19:26;21.50;96.80
22089;DHT22;11211;52.728;9.230;2022-08-19T14:21:52;21.50;96.80
22089;DHT22;11211;52.728;9.230;2022-08-19T14:24:23;21.50;96.70
22089;DHT22;11211;52.728;9.230;2022-08-19T14:26:54;21.50;96.70
22089;DHT22;11211;52.728;9.230;2022-08-19T14:29:24;21.50;96.70
22089;DHT22;11211;52.728;9.230;2022-08-19T14:31:57;21.50;96.70
22089;DHT22;11211;52.728;9.230;2022-08-19T14:34:25;21.50;96.70
22089;DHT22;11211;52.728;9.230;2022-08-19T14:36:52;21.50;96.70
22089;DHT22;11211;52.728;9.230;2022-08-19T14:39:21;21.50;96.60
22089;DHT22;11211;52.728;9.230;2022-08-19T14:41:48;21.50;96.60
22089;DHT22;11211;52.728;9.230;2022-08-19T14:44:18;21.50;96.60
22089;DHT22;11211;52.728;9.230;2022-08-19T14:49:50;21.50;96.60
22089;DHT22;11211;52.728;9.230;2022-08-19T14:52:22;21.60;96.60
22089;DHT22;11211;52.728;9.230;2022-08-19T14:55:13;21.60;96.60
22089;DHT22;11211;52.728;9.230;2022-08-19T14:57:41;21.50;96.60
22089;DHT22;11211;52.728;9.230;2022-08-19T15:00:14;21.50;96.60
22089;DHT22;11211;52.728;9.230;2022-08-19T15:02:45;21.50;96.60
22089;DHT22;11211;52.728;9.230;2022-08-19T15:05:26;21.50;96.60
22089;DHT22;11211;52.728;9.230;2022-08-19T15:07:53;21.60;96.60
22089;DHT22;11211;52.728;9.230;2022-08-19T15:10:22;21.50;96.50
22089;DHT22;11211;52.728;9.230;2022-08-19T15:12:50;21.50;96.50
22089;DHT22;11211;52.728;9.230;2022-08-19T15:15:18;21.50;96.40
22089;DHT22;11211;52.728;9.230;2022-08-19T15:17:50;21.50;96.40
22089;DHT22;11211;52.728;9.230;2022-08-19T15:20:20;21.50;96.00
22089;DHT22;11211;52.728;9.230;2022-08-19T15:22:48;21.50;96.30
22089;DHT22;11211;52.728;9.230;2022-08-19T15:25:18;21.50;96.30
22089;DHT22;11211;52.728;9.230;2022-08-19T15:27:46;21.50;96.30
22089;DHT22;11211;52.728;9.230;2022-08-19T15:30:18;21.50;96.20
22089;DHT22;11211;52.728;9.230;2022-08-19T15:32:57;21.50;96.20
22089;DHT22;11211;52.728;9.230;2022-08-19T15:35:31;21.40;96.10
22089;DHT22;11211;52.728;9.230;2022-08-19T15:37:58;21.50;96.10
22089;DHT22;11211;52.728;9.230;2022-08-19T15:40:28;21.50;96.10
22089;DHT22;11211;52.728;9.230;2022-08-19T15:42:56;21.50;96.10
22089;DHT22;11211;52.728;9.230;2022-08-19T15:45:24;21.50;96.10
22089;DHT22;11211;52.728;9.230;2022-08-19T15:47:57;21.50;96.10
22089;DHT22;11211;52.728;9.230;2022-08-19T15:50:24;21.50;96.10
22089;DHT22;11211;52.728;9.230;2022-08-19T15:53:00;21.50;96.10
22089;DHT22;11211;52.728;9.230;2022-08-19T15:55:30;21.50;96.10
22089;DHT22;11211;52.728;9.230;2022-08-19T15:57:58;21.50;96.10
22089;DHT22;11211;52.728;9.230;2022-08-19T16:00:42;21.50;96.10
22089;DHT22;11211;52.728;9.230;2022-08-19T16:03:26;21.50;96.10
22089;DHT22;11211;52.728;9.230;2022-08-19T16:06:22;21.50;96.10
22089;DHT22;11211;52.728;9.230;2022-08-19T16:13:38;21.50;96.20
22089;DHT22;11211;52.728;9.230;2022-08-19T16:15:55;21.50;96.20
22089;DHT22;11211;52.728;9.230;2022-08-19T16:22:35;21.50;96.20
22089;DHT22;11211;52.728;9.230;2022-08-19T16:25:54;21.50;96.10
22089;DHT22;11211;52.728;9.230;2022-08-19T16:28:35;21.50;96.10
22089;DHT22;11211;52.728;9.230;2022-08-19T16:31:02;21.50;96.00
22089;DHT22;11211;52.728;9.230;2022-08-19T16:33:30;21.50;96.00
22089;DHT22;11211;52.728;9.230;2022-08-19T16:39:09;21.50;96.00
22089;DHT22;11211;52.728;9.230;2022-08-19T16:41:41;21.50;95.70
22089;DHT22;11211;52.728;9.230;2022-08-19T16:44:14;21.50;95.70
22089;DHT22;11211;52.728;9.230;2022-08-19T16:47:16;21.50;95.70
22089;DHT22;11211;52.728;9.230;2022-08-19T16:50:43;21.50;95.70
22089;DHT22;11211;52.728;9.230;2022-08-19T16:53:15;21.50;95.70
22089;DHT22;11211;52.728;9.230;2022-08-19T16:55:48;21.50;95.60
22089;DHT22;11211;52.728;9.230;2022-08-19T16:58:19;21.50;95.60
22089;DHT22;11211;52.728;9.230;2022-08-19T17:00:48;21.50;95.50
22089;DHT22;11211;52.728;9.230;2022-08-19T17:03:16;21.50;95.50
22089;DHT22;11211;52.728;9.230;2022-08-19T17:05:48;21.50;95.50
22089;DHT22;11211;52.728;9.230;2022-08-19T17:08:16;21.50;95.50
22089;DHT22;11211;52.728;9.230;2022-08-19T17:10:44;21.50;95.40
22089;DHT22;11211;52.728;9.230;2022-08-19T17:13:11;21.50;95.40
22089;DHT22;11211;52.728;9.230;2022-08-19T17:15:40;21.50;95.40
22089;DHT22;11211;52.728;9.230;2022-08-19T17:18:11;21.50;95.30
22089;DHT22;11211;52.728;9.230;2022-08-19T17:20:39;21.50;95.30
22089;DHT22;11211;52.728;9.230;2022-08-19T17:23:13;21.50;95.30
22089;DHT22;11211;52.728;9.230;2022-08-19T17:25:41;21.50;95.20
22089;DHT22;11211;52.728;9.230;2022-08-19T17:28:10;21.50;95.20
22089;DHT22;11211;52.728;9.230;2022-08-19T17:30:37;21.50;95.10
22089;DHT22;11211;52.728;9.230;2022-08-19T17:33:06;21.50;95.50
22089;DHT22;11211;52.728;9.230;2022-08-19T17:35:51;21.50;95.10
22089;DHT22;11211;52.728;9.230;2022-08-19T17:38:20;21.50;95.00
22089;DHT22;11211;52.728;9.230;2022-08-19T17:40:49;21.50;95.00
22089;DHT22;11211;52.728;9.230;2022-08-19T17:43:17;21.50;94.90
22089;DHT22;11211;52.728;9.230;2022-08-19T17:45:45;21.50;94.90
22089;DHT22;11211;52.728;9.230;2022-08-19T17:48:12;21.50;94.80
22089;DHT22;11211;52.728;9.230;2022-08-19T17:50:38;21.50;94.80
22089;DHT22;11211;52.728;9.230;2022-08-19T17:53:07;21.50;94.70
22089;DHT22;11211;52.728;9.230;2022-08-19T17:55:34;21.50;94.70
22089;DHT22;11211;52.728;9.230;2022-08-19T17:58:09;21.50;94.60
22089;DHT22;11211;52.728;9.230;2022-08-19T18:00:36;21.50;94.60
22089;DHT22;11211;52.728;9.230;2022-08-19T18:03:04;21.50;94.60
22089;DHT22;11211;52.728;9.230;2022-08-19T18:05:33;21.50;94.50
22089;DHT22;11211;52.728;9.230;2022-08-19T18:11:25;21.50;94.50
22089;DHT22;11211;52.728;9.230;2022-08-19T18:13:52;21.50;94.50
22089;DHT22;11211;52.728;9.230;2022-08-19T18:16:19;21.50;94.40
22089;DHT22;11211;52.728;9.230;2022-08-19T18:18:47;21.50;94.50
22089;DHT22;11211;52.728;9.230;2022-08-19T18:21:14;21.50;94.40
22089;DHT22;11211;52.728;9.230;2022-08-19T18:23:44;21.50;94.40
22089;DHT22;11211;52.728;9.230;2022-08-19T18:26:14;21.50;94.40
22089;DHT22;11211;52.728;9.230;2022-08-19T18:28:43;21.50;94.40
22089;DHT22;11211;52.728;9.230;2022-08-19T18:31:10;21.50;94.40
22089;DHT22;11211;52.728;9.230;2022-08-19T18:33:37;21.50;94.30
22089;DHT22;11211;52.728;9.230;2022-08-19T18:36:04;21.50;94.30
22089;DHT22;11211;52.728;9.230;2022-08-19T18:38:37;21.50;94.20
22089;DHT22;11211;52.728;9.230;2022-08-19T18:41:21;21.50;94.20
22089;DHT22;11211;52.728;9.230;2022-08-19T18:44:10;21.50;94.10
22089;DHT22;11211;52.728;9.230;2022-08-19T18:46:56;21.50;94.10
22089;DHT22;11211;52.728;9.230;2022-08-19T18:49:40;21.50;94.00
22089;DHT22;11211;52.728;9.230;2022-08-19T18:52:07;21.50;94.00
22089;DHT22;11211;52.728;9.230;2022-08-19T18:54:34;21.50;93.90
22089;DHT22;11211;52.728;9.230;2022-08-19T18:57:10;21.50;93.90
22089;DHT22;11211;52.728;9.230;2022-08-19T18:59:54;21.50;93.80
22089;DHT22;11211;52.728;9.230;2022-08-19T19:02:35;21.50;93.80
22089;DHT22;11211;52.728;9.230;2022-08-19T19:05:04;21.50;93.70
22089;DHT22;11211;52.728;9.230;2022-08-19T19:07:33;21.50;93.70
22089;DHT22;11211;52.728;9.230;2022-08-19T19:10:01;21.40;93.60
22089;DHT22;11211;52.728;9.230;2022-08-19T19:12:28;21.50;93.70
22089;DHT22;11211;52.728;9.230;2022-08-19T19:14:56;21.50;93.60
22089;DHT22;11211;52.728;9.230;2022-08-19T19:17:23;21.50;93.60
22089;DHT22;11211;52.728;9.230;2022-08-19T19:19:53;21.50;93.50
22089;DHT22;11211;52.728;9.230;2022-08-19T19:22:23;21.50;93.50
22089;DHT22;11211;52.728;9.230;2022-08-19T19:24:51;21.50;93.50
22089;DHT22;11211;52.728;9.230;2022-08-19T19:27:19;21.50;93.40
22089;DHT22;11211;52.728;9.230;2022-08-19T19:29:50;21.50;93.40
22089;DHT22;11211;52.728;9.230;2022-08-19T19:35:27;21.50;93.40
22089;DHT22;11211;52.728;9.230;2022-08-19T19:37:55;21.50;93.40
22089;DHT22;11211;52.728;9.230;2022-08-19T19:40:22;21.50;93.70
22089;DHT22;11211;52.728;9.230;2022-08-19T19:42:49;21.50;93.40
22089;DHT22;11211;52.728;9.230;2022-08-19T19:45:17;21.50;93.50
22089;DHT22;11211;52.728;9.230;2022-08-19T19:47:45;21.50;93.50
22089;DHT22;11211;52.728;9.230;2022-08-19T19:50:25;21.50;93.50
22089;DHT22;11211;52.728;9.230;2022-08-19T19:52:59;21.50;93.60
22089;DHT22;11211;52.728;9.230;2022-08-19T19:56:08;21.50;93.60
22089;DHT22;11211;52.728;9.230;2022-08-19T20:02:24;21.50;93.60
22089;DHT22;11211;52.728;9.230;2022-08-19T20:04:52;21.50;93.60
22089;DHT22;11211;52.728;9.230;2022-08-19T20:07:21;21.50;93.60
22089;DHT22;11211;52.728;9.230;2022-08-19T20:10:16;21.50;93.60
22089;DHT22;11211;52.728;9.230;2022-08-19T20:12:42;21.50;93.70
22089;DHT22;11211;52.728;9.230;2022-08-19T20:15:09;21.50;93.70
22089;DHT22;11211;52.728;9.230;2022-08-19T20:21:11;21.50;93.70
22089;DHT22;11211;52.728;9.230;2022-08-19T20:23:54;21.50;93.70
22089;DHT22;11211;52.728;9.230;2022-08-19T20:26:24;21.50;93.80
22089;DHT22;11211;52.728;9.230;2022-08-19T20:28:51;21.50;93.70